createdAt,value
2019-04-29T00:00:54.128Z,1015.48
2019-04-29T00:01:54.116Z,1015.50
2019-04-29T00:02:54.152Z,1015.48
2019-04-29T00:03:54.096Z,1015.49
2019-04-29T00:04:54.083Z,1015.53
2019-04-29T00:05:54.080Z,1015.48
2019-04-29T00:06:54.064Z,1015.51
2019-04-29T00:07:54.091Z,1015.54
2019-04-29T00:08:54.037Z,1015.55
2019-04-29T00:09:54.026Z,1015.51
2019-04-29T00:10:54.018Z,1015.52
2019-04-29T00:11:54.046Z,1015.54
2019-04-29T00:12:53.993Z,1015.57
2019-04-29T00:13:53.983Z,1015.56
2019-04-29T00:14:53.970Z,1015.55
2019-04-29T00:15:53.958Z,1015.55
2019-04-29T00:16:53.952Z,1015.58
2019-04-29T00:17:53.980Z,1015.57
2019-04-29T00:18:53.974Z,1015.58
2019-04-29T00:19:53.917Z,1015.60
2019-04-29T00:20:53.908Z,1015.60
2019-04-29T00:21:53.933Z,1015.58
2019-04-29T00:22:53.887Z,1015.55
2019-04-29T00:24:03.712Z,1015.55
2019-04-29T00:24:54.903Z,1015.59
2019-04-29T00:25:53.850Z,1015.54
2019-04-29T00:26:53.880Z,1015.62
2019-04-29T00:27:53.828Z,1015.61
2019-04-29T00:28:53.819Z,1015.66
2019-04-29T00:29:53.805Z,1015.64
2019-04-29T00:30:53.797Z,1015.68
2019-04-29T00:31:53.827Z,1015.67
2019-04-29T00:32:53.773Z,1015.70
2019-04-29T00:33:53.802Z,1015.66
2019-04-29T00:34:53.756Z,1015.72
2019-04-29T00:35:53.742Z,1015.72
2019-04-29T00:36:53.730Z,1015.72
2019-04-29T00:37:53.761Z,1015.71
2019-04-29T00:38:53.719Z,1015.75
2019-04-29T00:39:53.697Z,1015.73
2019-04-29T00:40:53.691Z,1015.68
2019-04-29T00:41:53.722Z,1015.70
2019-04-29T00:42:53.669Z,1015.70
2019-04-29T00:43:53.653Z,1015.73
2019-04-29T00:44:53.689Z,1015.69
2019-04-29T00:45:53.676Z,1015.71
2019-04-29T00:46:53.621Z,1015.70
2019-04-29T00:47:53.607Z,1015.71
2019-04-29T00:48:53.600Z,1015.69
2019-04-29T00:49:53.584Z,1015.76
2019-04-29T00:50:53.573Z,1015.73
2019-04-29T00:51:53.603Z,1015.77
2019-04-29T00:52:53.598Z,1015.79
2019-04-29T00:53:53.541Z,1015.76
2019-04-29T00:54:53.535Z,1015.78
2019-04-29T00:55:53.518Z,1015.78
2019-04-29T00:56:53.509Z,1015.75
2019-04-29T00:57:53.496Z,1015.74
2019-04-29T00:58:53.531Z,1015.72
2019-04-29T00:59:53.475Z,1015.72
2019-04-29T01:00:53.467Z,1015.75
2019-04-29T01:01:53.451Z,1015.77
2019-04-29T01:02:53.443Z,1015.74
2019-04-29T01:03:53.472Z,1015.75
2019-04-29T01:04:53.423Z,1015.70
2019-04-29T01:05:53.408Z,1015.70
2019-04-29T01:06:53.412Z,1015.74
2019-04-29T01:07:53.387Z,1015.72
2019-04-29T01:08:53.416Z,1015.74
2019-04-29T01:09:53.362Z,1015.76
2019-04-29T01:10:53.358Z,1015.76
2019-04-29T01:11:53.341Z,1015.74
2019-04-29T01:12:53.372Z,1015.74
2019-04-29T01:13:53.368Z,1015.72
2019-04-29T01:14:53.309Z,1015.71
2019-04-29T01:15:53.296Z,1015.71
2019-04-29T01:16:53.289Z,1015.71
2019-04-29T01:17:53.274Z,1015.72
2019-04-29T01:18:53.264Z,1015.72
2019-04-29T01:19:53.296Z,1015.70
2019-04-29T01:20:53.242Z,1015.73
2019-04-29T01:21:53.231Z,1015.73
2019-04-29T01:22:53.222Z,1015.75
2019-04-29T01:23:53.251Z,1015.73
2019-04-29T01:24:53.198Z,1015.74
2019-04-29T01:25:53.187Z,1015.75
2019-04-29T01:26:53.176Z,1015.73
2019-04-29T01:27:53.166Z,1015.73
2019-04-29T01:28:53.160Z,1015.79
2019-04-29T01:29:53.187Z,1015.76
2019-04-29T01:30:53.132Z,1015.75
2019-04-29T01:31:53.124Z,1015.78
2019-04-29T01:32:53.120Z,1015.76
2019-04-29T01:33:53.165Z,1015.81
2019-04-29T01:34:53.138Z,1015.81
2019-04-29T01:35:53.077Z,1015.79
2019-04-29T01:36:53.083Z,1015.77
2019-04-29T01:37:53.095Z,1015.79
2019-04-29T01:38:53.054Z,1015.78
2019-04-29T01:39:53.032Z,1015.80
2019-04-29T01:40:53.061Z,1015.84
2019-04-29T01:41:53.050Z,1015.82
2019-04-29T01:42:52.999Z,1015.86
2019-04-29T01:43:53.027Z,1015.79
2019-04-29T01:44:52.980Z,1015.82
2019-04-29T01:45:52.977Z,1015.89
2019-04-29T01:46:52.995Z,1015.86
2019-04-29T01:47:52.943Z,1015.89
2019-04-29T01:48:52.933Z,1015.89
2019-04-29T01:49:52.922Z,1015.92
2019-04-29T01:50:52.915Z,1015.96
2019-04-29T01:51:52.915Z,1015.91
2019-04-29T01:52:52.932Z,1015.98
2019-04-29T01:53:52.877Z,1015.99
2019-04-29T01:54:52.908Z,1015.94
2019-04-29T01:55:52.855Z,1016.00
2019-04-29T01:56:52.849Z,1016.02
2019-04-29T01:57:52.834Z,1016.00
2019-04-29T01:58:52.823Z,1015.99
2019-04-29T01:59:52.852Z,1015.98
2019-04-29T02:00:52.804Z,1015.98
2019-04-29T02:01:52.801Z,1016.00
2019-04-29T02:02:52.780Z,1015.98
2019-04-29T02:03:52.768Z,1016.02
2019-04-29T02:04:52.761Z,1015.99
2019-04-29T02:05:52.811Z,1016.03
2019-04-29T02:06:52.780Z,1016.03
2019-04-29T02:07:52.723Z,1016.06
2019-04-29T02:08:52.761Z,1016.01
2019-04-29T02:09:52.712Z,1016.02
2019-04-29T02:10:52.703Z,1016.01
2019-04-29T02:11:52.724Z,1016.06
2019-04-29T02:12:52.671Z,1016.02
2019-04-29T02:13:52.658Z,1016.04
2019-04-29T02:14:52.649Z,1016.08
2019-04-29T02:15:52.639Z,1016.05
2019-04-29T02:16:52.667Z,1015.99
2019-04-29T02:17:52.614Z,1016.05
2019-04-29T02:18:52.603Z,1016.03
2019-04-29T02:19:52.594Z,1016.05
2019-04-29T02:20:52.586Z,1016.06
2019-04-29T02:21:52.576Z,1016.00
2019-04-29T02:22:52.600Z,1016.03
2019-04-29T02:23:52.549Z,1016.02
2019-04-29T02:24:52.536Z,1016.03
2019-04-29T02:25:52.527Z,1016.00
2019-04-29T02:26:52.563Z,1016.00
2019-04-29T02:27:52.515Z,1016.03
2019-04-29T02:28:52.494Z,1016.01
2019-04-29T02:29:52.490Z,1016.02
2019-04-29T02:30:52.479Z,1016.03
2019-04-29T02:31:52.460Z,1016.00
2019-04-29T02:32:52.496Z,1015.99
2019-04-29T02:33:52.438Z,1015.98
2019-04-29T02:34:52.428Z,1015.98
2019-04-29T02:35:52.459Z,1015.97
2019-04-29T02:36:52.407Z,1016.01
2019-04-29T02:37:52.398Z,1016.03
2019-04-29T02:38:52.389Z,1016.02
2019-04-29T02:39:52.413Z,1016.03
2019-04-29T02:40:52.363Z,1015.99
2019-04-29T02:41:52.355Z,1015.99
2019-04-29T02:42:52.337Z,1016.01
2019-04-29T02:43:52.371Z,1015.98
2019-04-29T02:44:52.318Z,1016.00
2019-04-29T02:45:52.304Z,1015.98
2019-04-29T02:46:52.301Z,1015.98
2019-04-29T02:47:52.335Z,1015.99
2019-04-29T02:48:52.346Z,1015.96
2019-04-29T02:49:52.259Z,1015.96
2019-04-29T02:50:52.250Z,1015.98
2019-04-29T02:51:52.238Z,1015.97
2019-04-29T02:52:52.291Z,1015.97
2019-04-29T02:53:52.217Z,1015.99
2019-04-29T02:54:52.252Z,1015.97
2019-04-29T02:55:52.194Z,1015.98
2019-04-29T02:56:52.187Z,1016.00
2019-04-29T02:57:52.172Z,1015.97
2019-04-29T02:58:52.161Z,1016.00
2019-04-29T02:59:52.150Z,1016.00
2019-04-29T03:00:52.186Z,1016.02
2019-04-29T03:01:52.505Z,1015.98
2019-04-29T03:02:52.119Z,1015.96
2019-04-29T03:03:52.109Z,1015.98
2019-04-29T03:04:52.108Z,1015.96
2019-04-29T03:05:52.085Z,1015.91
2019-04-29T03:06:52.120Z,1015.96
2019-04-29T03:07:52.061Z,1015.94
2019-04-29T03:08:52.053Z,1015.95
2019-04-29T03:09:52.048Z,1016.01
2019-04-29T03:10:52.041Z,1015.98
2019-04-29T03:11:52.018Z,1015.98
2019-04-29T03:12:52.055Z,1015.93
2019-04-29T03:13:51.996Z,1016.01
2019-04-29T03:14:51.985Z,1016.01
2019-04-29T03:15:51.979Z,1016.07
2019-04-29T03:16:51.964Z,1016.02
2019-04-29T03:17:51.950Z,1016.02
2019-04-29T03:18:51.980Z,1016.08
2019-04-29T03:19:51.932Z,1016.07
2019-04-29T03:20:51.959Z,1016.11
2019-04-29T03:21:51.912Z,1016.10
2019-04-29T03:22:51.940Z,1016.09
2019-04-29T03:23:51.886Z,1016.10
2019-04-29T03:24:51.914Z,1016.10
2019-04-29T03:25:51.860Z,1016.09
2019-04-29T03:26:51.857Z,1016.14
2019-04-29T03:27:51.865Z,1016.06
2019-04-29T03:28:51.830Z,1016.08
2019-04-29T03:29:51.819Z,1016.08
2019-04-29T03:30:51.846Z,1016.06
2019-04-29T03:31:51.840Z,1016.07
2019-04-29T03:32:51.785Z,1016.10
2019-04-29T03:33:51.773Z,1016.09
2019-04-29T03:34:51.765Z,1016.11
2019-04-29T03:35:51.768Z,1016.09
2019-04-29T03:36:51.781Z,1016.06
2019-04-29T03:37:51.738Z,1016.06
2019-04-29T03:38:51.729Z,1016.04
2019-04-29T03:39:51.751Z,1016.07
2019-04-29T03:40:51.695Z,1016.08
2019-04-29T03:41:51.685Z,1016.11
2019-04-29T03:42:51.717Z,1016.09
2019-04-29T03:43:51.663Z,1016.11
2019-04-29T03:44:51.657Z,1016.11
2019-04-29T03:45:51.640Z,1016.12
2019-04-29T03:46:51.633Z,1016.15
2019-04-29T03:47:51.659Z,1016.12
2019-04-29T03:48:51.655Z,1016.15
2019-04-29T03:49:51.595Z,1016.20
2019-04-29T03:50:51.600Z,1016.19
2019-04-29T03:51:51.574Z,1016.20
2019-04-29T03:52:51.565Z,1016.23
2019-04-29T03:53:51.552Z,1016.25
2019-04-29T03:54:51.579Z,1016.27
2019-04-29T03:55:51.529Z,1016.28
2019-04-29T03:56:51.548Z,1016.27
2019-04-29T03:57:51.506Z,1016.23
2019-04-29T03:58:51.500Z,1016.27
2019-04-29T03:59:51.486Z,1016.22
2019-04-29T04:00:51.514Z,1016.24
2019-04-29T04:01:51.463Z,1016.28
2019-04-29T04:02:51.455Z,1016.28
2019-04-29T04:03:51.439Z,1016.23
2019-04-29T04:04:51.468Z,1016.22
2019-04-29T04:05:51.461Z,1016.24
2019-04-29T04:06:51.446Z,1016.22
2019-04-29T04:07:51.398Z,1016.26
2019-04-29T04:09:05.524Z,1016.25
2019-04-29T04:09:52.375Z,1016.29
2019-04-29T04:10:51.362Z,1016.33
2019-04-29T04:11:51.394Z,1016.25
2019-04-29T04:12:51.350Z,1016.34
2019-04-29T04:13:51.364Z,1016.26
2019-04-29T04:14:51.318Z,1016.24
2019-04-29T04:15:51.306Z,1016.30
2019-04-29T04:16:51.338Z,1016.31
2019-04-29T04:17:51.291Z,1016.28
2019-04-29T04:18:51.275Z,1016.35
2019-04-29T04:19:51.263Z,1016.32
2019-04-29T04:20:51.297Z,1016.33
2019-04-29T04:21:51.240Z,1016.36
2019-04-29T04:22:51.231Z,1016.35
2019-04-29T04:23:51.218Z,1016.34
2019-04-29T04:24:51.207Z,1016.35
2019-04-29T04:25:51.197Z,1016.36
2019-04-29T04:26:51.229Z,1016.35
2019-04-29T04:27:51.218Z,1016.33
2019-04-29T04:28:51.206Z,1016.38
2019-04-29T04:29:51.156Z,1016.38
2019-04-29T04:30:51.148Z,1016.39
2019-04-29T04:31:51.132Z,1016.34
2019-04-29T04:32:51.160Z,1016.41
2019-04-29T04:33:51.107Z,1016.40
2019-04-29T04:34:51.207Z,1016.38
2019-04-29T04:35:51.085Z,1016.44
2019-04-29T04:36:51.075Z,1016.45
2019-04-29T04:37:51.060Z,1016.46
2019-04-29T04:38:51.051Z,1016.48
2019-04-29T04:39:51.039Z,1016.50
2019-04-29T04:40:51.071Z,1016.49
2019-04-29T04:41:51.058Z,1016.54
2019-04-29T04:42:51.032Z,1016.51
2019-04-29T04:43:51.070Z,1016.57
2019-04-29T04:44:50.988Z,1016.54
2019-04-29T04:45:50.975Z,1016.56
2019-04-29T04:46:50.964Z,1016.60
2019-04-29T04:47:50.995Z,1016.56
2019-04-29T04:48:50.983Z,1016.62
2019-04-29T04:49:50.954Z,1016.62
2019-04-29T04:50:50.930Z,1016.57
2019-04-29T04:51:51.025Z,1016.56
2019-04-29T04:52:50.944Z,1016.57
2019-04-29T04:53:50.896Z,1016.60
2019-04-29T04:54:50.895Z,1016.60
2019-04-29T04:55:50.867Z,1016.63
2019-04-29T04:56:50.895Z,1016.62
2019-04-29T04:57:50.840Z,1016.63
2019-04-29T04:58:50.868Z,1016.59
2019-04-29T04:59:50.821Z,1016.61
2019-04-29T05:00:50.805Z,1016.63
2019-04-29T05:01:50.808Z,1016.61
2019-04-29T05:02:50.876Z,1016.60
2019-04-29T05:03:50.828Z,1016.67
2019-04-29T05:04:50.814Z,1016.66
2019-04-29T05:05:50.752Z,1016.65
2019-04-29T05:06:50.767Z,1016.69
2019-04-29T05:07:50.743Z,1016.70
2019-04-29T05:08:50.723Z,1016.71
2019-04-29T05:09:50.722Z,1016.75
2019-04-29T05:10:51.507Z,1016.70
2019-04-29T05:11:50.747Z,1016.76
2019-04-29T05:12:50.679Z,1016.75
2019-04-29T05:13:50.683Z,1016.76
2019-04-29T05:14:50.653Z,1016.80
2019-04-29T05:15:50.668Z,1016.82
2019-04-29T05:16:50.639Z,1016.82
2019-04-29T05:17:53.169Z,1016.81
2019-04-29T05:18:50.612Z,1016.81
2019-04-29T05:19:50.616Z,1016.85
2019-04-29T05:20:50.631Z,1016.86
2019-04-29T05:21:50.589Z,1016.82
2019-04-29T05:22:50.566Z,1016.85
2019-04-29T05:23:50.559Z,1016.78
2019-04-29T05:24:50.552Z,1016.84
2019-04-29T05:25:50.540Z,1016.78
2019-04-29T05:26:50.563Z,1016.76
2019-04-29T05:27:50.588Z,1016.75
2019-04-29T05:28:50.499Z,1016.78
2019-04-29T05:29:50.519Z,1016.81
2019-04-29T05:30:50.486Z,1016.81
2019-04-29T05:31:50.468Z,1016.81
2019-04-29T05:32:50.514Z,1016.83
2019-04-29T05:33:50.450Z,1016.83
2019-04-29T05:34:50.444Z,1016.82
2019-04-29T05:35:50.454Z,1016.83
2019-04-29T05:36:50.414Z,1016.82
2019-04-29T05:37:50.461Z,1016.83
2019-04-29T05:38:50.412Z,1016.88
2019-04-29T05:39:50.404Z,1016.88
2019-04-29T05:40:50.374Z,1016.83
2019-04-29T05:41:50.377Z,1016.96
2019-04-29T05:42:52.641Z,1016.89
2019-04-29T05:43:50.349Z,1016.89
2019-04-29T05:44:50.370Z,1016.98
2019-04-29T05:45:50.326Z,1016.98
2019-04-29T05:46:50.351Z,1016.94
2019-04-29T05:47:52.500Z,1016.98
2019-04-29T05:48:51.336Z,1016.98
2019-04-29T05:49:50.323Z,1016.99
2019-04-29T05:50:52.181Z,1016.97
2019-04-29T05:51:50.317Z,1016.96
2019-04-29T05:52:50.332Z,1017.01
2019-04-29T05:53:54.898Z,1017.02
2019-04-29T05:54:51.287Z,1017.04
2019-04-29T05:55:52.515Z,1017.05
2019-04-29T05:56:50.212Z,1017.00
2019-04-29T05:57:50.231Z,1017.07
2019-04-29T05:58:50.203Z,1017.11
2019-04-29T05:59:50.163Z,1017.17
2019-04-29T06:00:50.168Z,1017.13
2019-04-29T06:01:50.139Z,1017.12
2019-04-29T06:02:50.164Z,1017.18
2019-04-29T06:03:50.178Z,1017.18
2019-04-29T06:04:52.342Z,1017.19
2019-04-29T06:05:50.125Z,1017.18
2019-04-29T06:06:50.127Z,1017.23
2019-04-29T06:07:51.733Z,1017.19
2019-04-29T06:08:50.093Z,1017.21
2019-04-29T06:09:50.150Z,1017.23
2019-04-29T06:10:50.044Z,1017.25
2019-04-29T06:11:50.024Z,1017.31
2019-04-29T06:12:50.099Z,1017.31
2019-04-29T06:13:50.009Z,1017.29
2019-04-29T06:14:49.999Z,1017.31
2019-04-29T06:15:50.023Z,1017.30
2019-04-29T06:16:52.710Z,1017.30
2019-04-29T06:17:50.048Z,1017.30
2019-04-29T06:18:50.018Z,1017.23
2019-04-29T06:19:49.954Z,1017.24
2019-04-29T06:20:49.946Z,1017.26
2019-04-29T06:21:49.928Z,1017.27
2019-04-29T06:22:49.906Z,1017.31
2019-04-29T06:23:49.912Z,1017.33
2019-04-29T06:24:49.951Z,1017.33
2019-04-29T06:25:49.923Z,1017.37
2019-04-29T06:26:49.872Z,1017.36
2019-04-29T06:27:49.871Z,1017.37
2019-04-29T06:28:49.874Z,1017.40
2019-04-29T06:29:49.890Z,1017.38
2019-04-29T06:30:51.606Z,1017.38
2019-04-29T06:31:49.884Z,1017.37
2019-04-29T06:32:49.796Z,1017.39
2019-04-29T06:33:49.787Z,1017.36
2019-04-29T06:34:49.803Z,1017.35
2019-04-29T06:35:49.766Z,1017.32
2019-04-29T06:36:49.976Z,1017.34
2019-04-29T06:37:49.798Z,1017.29
2019-04-29T06:38:49.744Z,1017.28
2019-04-29T06:39:49.943Z,1017.28
2019-04-29T06:40:49.731Z,1017.25
2019-04-29T06:41:49.774Z,1017.30
2019-04-29T06:42:53.454Z,1017.29
2019-04-29T06:43:54.169Z,1017.26
2019-04-29T06:44:50.800Z,1017.32
2019-04-29T06:45:49.681Z,1017.31
2019-04-29T06:46:50.221Z,1017.31
2019-04-29T06:47:49.697Z,1017.32
2019-04-29T06:48:49.693Z,1017.32
2019-04-29T06:49:49.626Z,1017.36
2019-04-29T06:50:49.906Z,1017.35
2019-04-29T06:51:49.681Z,1017.39
2019-04-29T06:52:49.605Z,1017.43
2019-04-29T06:53:49.630Z,1017.40
2019-04-29T06:54:49.606Z,1017.49
2019-04-29T06:55:49.614Z,1017.44
2019-04-29T06:56:49.542Z,1017.46
2019-04-29T06:57:49.516Z,1017.48
2019-04-29T06:58:49.549Z,1017.43
2019-04-29T06:59:49.596Z,1017.44
2019-04-29T07:00:51.087Z,1017.45
2019-04-29T07:01:49.485Z,1017.43
2019-04-29T07:02:49.986Z,1017.44
2019-04-29T07:03:49.497Z,1017.43
2019-04-29T07:04:49.468Z,1017.45
2019-04-29T07:05:51.549Z,1017.46
2019-04-29T07:06:57.284Z,1017.43
2019-04-29T07:07:50.420Z,1017.48
2019-04-29T07:08:49.405Z,1017.50
2019-04-29T07:09:49.414Z,1017.45
2019-04-29T07:10:49.434Z,1017.48
2019-04-29T07:11:49.363Z,1017.43
2019-04-29T07:12:49.355Z,1017.45
2019-04-29T07:13:49.468Z,1017.47
2019-04-29T07:14:49.332Z,1017.47
2019-04-29T07:15:49.329Z,1017.56
2019-04-29T07:16:49.364Z,1017.52
2019-04-29T07:17:49.312Z,1017.55
2019-04-29T07:18:53.416Z,1017.54
2019-04-29T07:19:49.276Z,1017.55
2019-04-29T07:20:49.288Z,1017.52
2019-04-29T07:21:53.242Z,1017.55
2019-04-29T07:22:50.292Z,1017.52
2019-04-29T07:23:49.287Z,1017.50
2019-04-29T07:24:49.223Z,1017.52
2019-04-29T07:25:49.213Z,1017.51
2019-04-29T07:26:49.208Z,1017.54
2019-04-29T07:27:49.573Z,1017.50
2019-04-29T07:28:53.174Z,1017.51
2019-04-29T07:29:49.209Z,1017.54
2019-04-29T07:31:01.174Z,1017.56
2019-04-29T07:31:50.150Z,1017.58
2019-04-29T07:32:49.137Z,1017.54
2019-04-29T07:33:49.134Z,1017.48
2019-04-29T07:34:49.121Z,1017.49
2019-04-29T07:35:49.650Z,1017.45
2019-04-29T07:36:49.226Z,1017.42
2019-04-29T07:37:49.474Z,1017.45
2019-04-29T07:38:51.666Z,1017.42
2019-04-29T07:39:51.008Z,1017.44
2019-04-29T07:40:50.041Z,1017.43
2019-04-29T07:41:49.494Z,1017.44
2019-04-29T07:42:49.521Z,1017.42
2019-04-29T07:43:49.043Z,1017.45
2019-04-29T07:44:52.812Z,1017.41
2019-04-29T07:45:49.011Z,1017.44
2019-04-29T07:46:57.075Z,1017.39
2019-04-29T07:47:56.734Z,1017.41
2019-04-29T07:49:00.688Z,1017.38
2019-04-29T07:49:51.492Z,1017.42
2019-04-29T07:50:49.036Z,1017.41
2019-04-29T07:51:49.043Z,1017.44
2019-04-29T07:52:49.969Z,1017.44
2019-04-29T07:53:48.971Z,1017.42
2019-04-29T07:54:54.936Z,1017.44
2019-04-29T07:55:49.891Z,1017.44
2019-04-29T07:56:48.878Z,1017.45
2019-04-29T07:57:52.191Z,1017.39
2019-04-29T07:58:48.845Z,1017.41
2019-04-29T07:59:48.833Z,1017.41
2019-04-29T08:00:49.961Z,1017.45
2019-04-29T08:01:48.875Z,1017.42
2019-04-29T08:02:48.895Z,1017.41
2019-04-29T08:03:48.844Z,1017.39
2019-04-29T08:04:48.917Z,1017.37
2019-04-29T08:05:48.773Z,1017.38
2019-04-29T08:06:48.840Z,1017.39
2019-04-29T08:07:49.025Z,1017.39
2019-04-29T08:08:55.053Z,1017.37
2019-04-29T08:09:49.768Z,1017.36
2019-04-29T08:10:56.190Z,1017.31
2019-04-29T08:11:49.872Z,1017.40
2019-04-29T08:12:48.694Z,1017.36
2019-04-29T08:13:48.756Z,1017.29
2019-04-29T08:14:48.714Z,1017.26
2019-04-29T08:15:48.659Z,1017.27
2019-04-29T08:16:48.680Z,1017.21
2019-04-29T08:17:51.346Z,1017.23
2019-04-29T08:18:49.611Z,1017.22
2019-04-29T08:19:48.634Z,1017.18
2019-04-29T08:20:48.647Z,1017.20
2019-04-29T08:21:49.721Z,1017.12
2019-04-29T08:22:48.627Z,1017.22
2019-04-29T08:23:48.720Z,1017.23
2019-04-29T08:24:50.425Z,1017.17
2019-04-29T08:25:50.930Z,1017.16
2019-04-29T08:26:48.596Z,1017.19
2019-04-29T08:27:48.698Z,1017.23
2019-04-29T08:28:48.521Z,1017.21
2019-04-29T08:29:48.553Z,1017.20
2019-04-29T08:30:48.527Z,1017.26
2019-04-29T08:31:52.041Z,1017.22
2019-04-29T08:32:50.728Z,1017.26
2019-04-29T08:33:48.620Z,1017.23
2019-04-29T08:34:48.450Z,1017.20
2019-04-29T08:35:48.452Z,1017.18
2019-04-29T08:36:48.500Z,1017.19
2019-04-29T08:37:48.420Z,1017.18
2019-04-29T08:38:48.409Z,1017.15
2019-04-29T08:40:03.497Z,1017.17
2019-04-29T08:40:50.502Z,1017.22
2019-04-29T08:41:48.410Z,1017.20
2019-04-29T08:42:48.495Z,1017.21
2019-04-29T08:43:48.363Z,1017.24
2019-04-29T08:44:48.359Z,1017.18
2019-04-29T08:45:48.350Z,1017.20
2019-04-29T08:46:51.741Z,1017.20
2019-04-29T08:47:48.309Z,1017.13
2019-04-29T08:48:48.339Z,1017.11
2019-04-29T08:49:48.282Z,1017.16
2019-04-29T08:50:48.268Z,1017.13
2019-04-29T08:51:48.314Z,1017.13
2019-04-29T08:52:48.377Z,1017.16
2019-04-29T08:53:48.371Z,1017.17
2019-04-29T08:54:50.870Z,1017.10
2019-04-29T08:55:49.267Z,1017.09
2019-04-29T08:57:02.327Z,1017.08
2019-04-29T08:57:50.169Z,1017.04
2019-04-29T08:58:50.994Z,1017.08
2019-04-29T08:59:48.568Z,1017.03
2019-04-29T09:00:57.674Z,1016.98
2019-04-29T09:01:48.274Z,1017.03
2019-04-29T09:02:49.376Z,1017.02
2019-04-29T09:03:48.773Z,1017.02
2019-04-29T09:04:53.727Z,1017.03
2019-04-29T09:06:03.962Z,1017.00
2019-04-29T09:06:49.307Z,1017.00
2019-04-29T09:07:48.165Z,1017.02
2019-04-29T09:08:56.210Z,1017.01
2019-04-29T09:09:49.119Z,1017.02
2019-04-29T09:10:48.150Z,1017.02
2019-04-29T09:11:49.422Z,1016.92
2019-04-29T09:12:48.689Z,1016.93
2019-04-29T09:13:48.035Z,1016.93
2019-04-29T09:14:48.105Z,1016.92
2019-04-29T09:15:48.074Z,1016.92
2019-04-29T09:16:48.209Z,1016.91
2019-04-29T09:17:48.010Z,1016.93
2019-04-29T09:18:48.099Z,1016.92
2019-04-29T09:19:49.625Z,1016.92
2019-04-29T09:20:47.951Z,1016.89
2019-04-29T09:21:49.399Z,1016.89
2019-04-29T09:22:47.925Z,1016.91
2019-04-29T09:23:47.953Z,1016.88
2019-04-29T09:24:49.429Z,1016.85
2019-04-29T09:26:01.715Z,1016.85
2019-04-29T09:26:48.932Z,1016.84
2019-04-29T09:27:47.944Z,1016.80
2019-04-29T09:28:49.709Z,1016.73
2019-04-29T09:29:58.904Z,1016.73
2019-04-29T09:30:48.928Z,1016.74
2019-04-29T09:31:47.820Z,1016.76
2019-04-29T09:32:47.845Z,1016.74
2019-04-29T09:33:49.067Z,1016.75
2019-04-29T09:34:49.043Z,1016.74
2019-04-29T09:35:59.281Z,1016.72
2019-04-29T09:36:49.803Z,1016.72
2019-04-29T09:37:49.393Z,1016.72
2019-04-29T09:38:50.255Z,1016.73
2019-04-29T09:39:47.811Z,1016.76
2019-04-29T09:40:48.269Z,1016.74
2019-04-29T09:41:47.697Z,1016.75
2019-04-29T09:42:50.175Z,1016.71
2019-04-29T09:43:47.746Z,1016.68
2019-04-29T09:44:47.681Z,1016.70
2019-04-29T09:45:47.675Z,1016.56
2019-04-29T09:46:47.642Z,1016.72
2019-04-29T09:47:47.714Z,1016.65
2019-04-29T09:48:47.657Z,1016.68
2019-04-29T09:49:47.635Z,1016.66
2019-04-29T09:50:47.591Z,1016.65
2019-04-29T09:51:47.586Z,1016.61
2019-04-29T09:52:48.568Z,1016.67
2019-04-29T09:53:47.580Z,1016.69
2019-04-29T09:54:47.587Z,1016.64
2019-04-29T09:55:47.544Z,1016.66
2019-04-29T09:56:48.361Z,1016.70
2019-04-29T09:57:47.528Z,1016.67
2019-04-29T09:58:47.761Z,1016.64
2019-04-29T09:59:47.577Z,1016.59
2019-04-29T10:00:47.525Z,1016.65
2019-04-29T10:01:50.561Z,1016.64
2019-04-29T10:02:48.704Z,1016.56
2019-04-29T10:03:47.472Z,1016.56
2019-04-29T10:04:56.339Z,1016.61
2019-04-29T10:05:48.431Z,1016.49
2019-04-29T10:06:47.417Z,1016.54
2019-04-29T10:07:47.414Z,1016.49
2019-04-29T10:08:47.450Z,1016.48
2019-04-29T10:09:57.112Z,1016.48
2019-04-29T10:10:48.627Z,1016.47
2019-04-29T10:11:47.677Z,1016.44
2019-04-29T10:12:47.338Z,1016.49
2019-04-29T10:13:47.326Z,1016.44
2019-04-29T10:14:47.369Z,1016.41
2019-04-29T10:15:47.329Z,1016.41
2019-04-29T10:16:49.872Z,1016.38
2019-04-29T10:17:50.804Z,1016.33
2019-04-29T10:18:48.268Z,1016.38
2019-04-29T10:19:47.299Z,1016.37
2019-04-29T10:20:47.322Z,1016.45
2019-04-29T10:21:47.255Z,1016.45
2019-04-29T10:22:50.203Z,1016.28
2019-04-29T10:23:48.214Z,1016.37
2019-04-29T10:24:47.224Z,1016.34
2019-04-29T10:25:47.248Z,1016.20
2019-04-29T10:26:47.352Z,1016.27
2019-04-29T10:27:47.232Z,1016.27
2019-04-29T10:28:47.154Z,1016.30
2019-04-29T10:29:50.775Z,1016.33
2019-04-29T10:30:48.166Z,1016.27
2019-04-29T10:31:47.190Z,1016.31
2019-04-29T10:32:47.223Z,1016.26
2019-04-29T10:33:50.224Z,1016.13
2019-04-29T10:34:48.214Z,1016.24
2019-04-29T10:35:47.156Z,1016.21
2019-04-29T10:36:47.064Z,1016.21
2019-04-29T10:37:47.102Z,1016.24
2019-04-29T10:38:47.167Z,1016.25
2019-04-29T10:39:47.148Z,1016.24
2019-04-29T10:40:47.093Z,1016.18
2019-04-29T10:41:47.007Z,1016.14
2019-04-29T10:42:47.046Z,1016.21
2019-04-29T10:43:49.475Z,1016.22
2019-04-29T10:44:48.028Z,1016.16
2019-04-29T10:45:46.972Z,1016.14
2019-04-29T10:46:46.997Z,1016.14
2019-04-29T10:47:46.941Z,1016.12
2019-04-29T10:48:46.946Z,1016.06
2019-04-29T10:49:49.641Z,1016.00
2019-04-29T10:50:51.597Z,1016.01
2019-04-29T10:51:47.955Z,1016.10
2019-04-29T10:52:46.901Z,1016.00
2019-04-29T10:53:51.034Z,1016.03
2019-04-29T10:54:51.247Z,1015.98
2019-04-29T10:55:48.789Z,1016.04
2019-04-29T10:56:47.241Z,1015.97
2019-04-29T10:57:49.727Z,1016.00
2019-04-29T10:58:46.822Z,1016.05
2019-04-29T10:59:50.027Z,1016.01
2019-04-29T11:00:46.815Z,1016.03
2019-04-29T11:01:54.634Z,1016.10
2019-04-29T11:02:49.401Z,1016.04
2019-04-29T11:03:46.771Z,1015.89
2019-04-29T11:04:46.760Z,1016.03
2019-04-29T11:06:00.106Z,1015.91
2019-04-29T11:06:47.804Z,1015.94
2019-04-29T11:07:46.816Z,1015.87
2019-04-29T11:08:46.709Z,1015.94
2019-04-29T11:09:50.829Z,1015.93
2019-04-29T11:10:47.693Z,1015.89
2019-04-29T11:11:46.714Z,1015.88
2019-04-29T11:12:46.680Z,1015.82
2019-04-29T11:13:50.333Z,1015.87
2019-04-29T11:14:46.664Z,1015.86
2019-04-29T11:15:49.431Z,1015.83
2019-04-29T11:16:47.114Z,1015.85
2019-04-29T11:17:46.694Z,1015.81
2019-04-29T11:18:46.594Z,1015.79
2019-04-29T11:19:46.647Z,1015.79
2019-04-29T11:20:48.833Z,1015.88
2019-04-29T11:21:47.623Z,1015.86
2019-04-29T11:22:46.754Z,1015.92
2019-04-29T11:23:50.558Z,1015.84
2019-04-29T11:24:47.656Z,1015.87
2019-04-29T11:25:50.988Z,1015.89
2019-04-29T11:26:46.631Z,1015.87
2019-04-29T11:27:46.649Z,1015.95
2019-04-29T11:28:46.977Z,1015.77
2019-04-29T11:29:46.543Z,1015.77
2019-04-29T11:30:49.446Z,1015.72
2019-04-29T11:31:49.104Z,1015.73
2019-04-29T11:32:48.188Z,1015.73
2019-04-29T11:33:46.475Z,1015.73
2019-04-29T11:34:48.340Z,1015.74
2019-04-29T11:35:47.444Z,1015.69
2019-04-29T11:36:46.436Z,1015.70
2019-04-29T11:37:50.070Z,1015.68
2019-04-29T11:38:47.447Z,1015.77
2019-04-29T11:39:50.216Z,1015.58
2019-04-29T11:40:47.349Z,1015.66
2019-04-29T11:41:47.287Z,1015.63
2019-04-29T11:42:46.353Z,1015.71
2019-04-29T11:43:50.463Z,1015.52
2019-04-29T11:44:46.351Z,1015.47
2019-04-29T11:45:46.444Z,1015.57
2019-04-29T11:46:48.980Z,1015.56
2019-04-29T11:47:46.432Z,1015.59
2019-04-29T11:48:46.362Z,1015.49
2019-04-29T11:49:47.917Z,1015.58
2019-04-29T11:50:50.163Z,1015.56
2019-04-29T11:52:07.919Z,1015.45
2019-04-29T11:52:47.458Z,1015.54
2019-04-29T11:53:46.287Z,1015.60
2019-04-29T11:54:46.208Z,1015.48
2019-04-29T11:55:46.516Z,1015.38
2019-04-29T11:56:46.220Z,1015.58
2019-04-29T11:57:46.155Z,1015.46
2019-04-29T11:58:46.156Z,1015.48
2019-04-29T11:59:46.220Z,1015.43
2019-04-29T12:00:46.959Z,1015.33
2019-04-29T12:01:50.925Z,1015.45
2019-04-29T12:02:47.107Z,1015.37
2019-04-29T12:03:46.103Z,1015.31
2019-04-29T12:04:46.102Z,1015.32
2019-04-29T12:05:46.336Z,1015.32